• Join FlightAware (Why Join?)
  • Login
  • US Flag 
01:35AM EST


 

Airport Tracker/Info


-or-


 

Live Flight TrackerFlight Track Log ✈ GTI4241 ✈ 13-Feb-2014 ✈ EDFH / HHN - KIAB

Flight Track Log - Related Links

Times and Time Zones

All times are in EST time to prevent confusion due to time zone crossing. See the GTI4241 flight status page for this flight to view local times or setup timezone preferences in your user account.

Time Position Orientation Groundspeed Altitude Reporting Facility
EST Latitude Longitude Course Direction KTS MPH feet Rate Location/Type
02:56PM 59.6428 -18.2445 294° West  Level FlightAware Approximate
02:57PM 59.6906 -18.4706 293° West  Level FlightAware Approximate
02:58PM 59.7379 -18.6973 293° West  Level FlightAware Approximate
02:59PM 59.7849 -18.9246 292° West  Level FlightAware Approximate
03:00PM 59.8314 -19.1525 292° West  Level FlightAware Approximate
03:01PM 59.8776 -19.3811 292° West  Level FlightAware Approximate
03:02PM 59.9234 -19.6103 292° West  Level FlightAware Approximate
03:03PM 59.9688 -19.8402 292° West  Level FlightAware Approximate
03:04PM 60.0100 -20.0731 285° West  Level FlightAware Approximate
03:05PM 60.0425 -20.3121 285° West  Level FlightAware Approximate
03:06PM 60.0746 -20.5515 285° West  Level FlightAware Approximate
03:07PM 60.1062 -20.7915 285° West  Level FlightAware Approximate
03:08PM 60.1374 -21.0318 285° West  Level FlightAware Approximate
03:09PM 60.1682 -21.2726 284° West  Level FlightAware Approximate
03:10PM 60.1985 -21.5139 284° West  Level FlightAware Approximate
03:11PM 60.2284 -21.7556 284° West  Level FlightAware Approximate
03:12PM 60.2579 -21.9978 284° West  Level FlightAware Approximate
03:13PM 60.2869 -22.2404 284° West  Level FlightAware Approximate
03:14PM 60.3154 -22.4834 283° West  Level FlightAware Approximate
03:15PM 60.3435 -22.7268 283° West  Level FlightAware Approximate
03:16PM 60.3717 -22.9704 283° West  Level FlightAware Approximate
03:17PM 60.3996 -23.2143 283° West  Level FlightAware Approximate
03:18PM 60.4271 -23.4587 283° West  Level FlightAware Approximate
03:19PM 60.0000 -20.0000 286° West 475 547 31,000  Level ETMS Enhanced Traffic Management System
03:35PM 60.0000 -20.0000 286° West 475 547 31,000  Level ETMS Enhanced Traffic Management System
03:36PM 60.5397 -24.3964 282° West 475 547 31,000  Level FlightAware Transoceanic
03:37PM 60.5668 -24.6593 282° West 475 547 31,000  Level FlightAware Transoceanic
03:38PM 60.5935 -24.9227 282° West 475 547 31,000  Level FlightAware Transoceanic
03:39PM 60.6197 -25.1865 281° West 475 547 31,000  Level FlightAware Transoceanic
03:40PM 60.6453 -25.4507 281° West 475 547 31,000  Level FlightAware Transoceanic
03:41PM 60.6704 -25.7154 281° West 475 547 31,000  Level FlightAware Transoceanic
03:42PM 60.6949 -25.9804 281° West 475 547 31,000  Level FlightAware Transoceanic
03:43PM 60.7190 -26.2459 280° West 475 547 31,000  Level FlightAware Transoceanic
03:44PM 60.7425 -26.5117 280° West 475 547 31,000  Level FlightAware Transoceanic
03:45PM 60.7655 -26.7780 280° West 475 547 31,000  Level FlightAware Transoceanic
03:46PM 60.7880 -27.0446 280° West 475 547 31,000  Level FlightAware Transoceanic
03:47PM 60.8099 -27.3116 279° West 475 547 31,000  Level FlightAware Transoceanic
03:48PM 60.8313 -27.5789 279° West 475 547 31,000  Level FlightAware Transoceanic
03:49PM 60.8522 -27.8466 279° West 475 547 31,000  Level FlightAware Transoceanic
03:50PM 60.8726 -28.1147 279° West 475 547 31,000  Level FlightAware Transoceanic
03:51PM 60.8924 -28.3831 279° West 475 547 31,000  Level FlightAware Transoceanic
03:52PM 60.9117 -28.6518 278° West 475 547 31,000  Level FlightAware Transoceanic
03:53PM 60.9304 -28.9208 278° West 475 547 31,000  Level FlightAware Transoceanic
03:54PM 60.9486 -29.1902 278° West 475 547 31,000  Level FlightAware Transoceanic
03:55PM 60.9663 -29.4598 278° West 475 547 31,000  Level FlightAware Transoceanic
03:56PM 60.9834 -29.7298 277° West 475 547 31,000  Level FlightAware Transoceanic
03:57PM 60.9990 -29.9829 277° West  Level FlightAware Approximate
03:58PM 61.0140 -30.2363 277° West  Level FlightAware Approximate
03:59PM 61.0076 -30.2202 274° West  Level FlightAware Approximate
04:00PM 61.0159 -30.4750 274° West  Level FlightAware Approximate
04:01PM 61.0237 -30.7299 274° West  Level FlightAware Approximate
04:02PM 61.0311 -30.9848 274° West  Level FlightAware Approximate
04:03PM 61.0380 -31.2400 273° West  Level FlightAware Approximate
04:04PM 61.0444 -31.4952 273° West  Level FlightAware Approximate
04:05PM 61.0503 -31.7505 273° West  Level FlightAware Approximate
04:06PM 61.0557 -32.0059 273° West  Level FlightAware Approximate
04:07PM 61.0606 -32.2614 272° West  Level FlightAware Approximate
04:08PM 61.0651 -32.5170 272° West  Level FlightAware Approximate
04:09PM 61.0691 -32.7726 272° West  Level FlightAware Approximate
04:10PM 61.0726 -33.0283 272° West  Level FlightAware Approximate
04:11PM 61.0756 -33.2841 272° West  Level FlightAware Approximate
04:12PM 61.0781 -33.5398 271° West  Level FlightAware Approximate
04:13PM 61.0802 -33.7957 271° West  Level FlightAware Approximate
04:14PM 61.0817 -34.0515 271° West  Level FlightAware Approximate
04:15PM 61.0828 -34.3074 271° West  Level FlightAware Approximate
04:16PM 61.0834 -34.5633 270° West  Level FlightAware Approximate
04:17PM 61.0835 -34.8192 270° West  Level FlightAware Approximate
04:18PM 61.0835 -35.0751 270° West  Level FlightAware Approximate
04:19PM 61.0835 -35.3310 270° West  Level FlightAware Approximate
04:20PM 61.0831 -35.5869 270° West  Level FlightAware Approximate
04:21PM 61.0823 -35.8428 270° West  Level FlightAware Approximate
04:22PM 61.0809 -36.0987 269° West  Level FlightAware Approximate
04:23PM 61.0790 -36.3545 269° West  Level FlightAware Approximate
04:24PM 61.0767 -36.6103 269° West  Level FlightAware Approximate
04:25PM 61.0739 -36.8661 269° West  Level FlightAware Approximate
04:26PM 61.0706 -37.1218 269° West  Level FlightAware Approximate
04:27PM 61.0668 -37.3775 268° West  Level FlightAware Approximate
04:28PM 61.0625 -37.6331 268° West  Level FlightAware Approximate
04:29PM 61.0578 -37.8886 268° West  Level FlightAware Approximate
04:30PM 61.0526 -38.1440 268° West  Level FlightAware Approximate
04:31PM 61.0469 -38.3994 267° West  Level FlightAware Approximate
04:32PM 61.0407 -38.6547 267° West  Level FlightAware Approximate
04:33PM 61.0340 -38.9098 267° West  Level FlightAware Approximate
04:34PM 61.0268 -39.1648 267° West  Level FlightAware Approximate
04:35PM 61.0192 -39.4198 267° West  Level FlightAware Approximate
04:36PM 61.0111 -39.6746 266° West  Level FlightAware Approximate
04:37PM 61.0025 -39.9292 266° West  Level FlightAware Approximate
04:38PM 61.0067 -40.1838 274° West  Level FlightAware Approximate
04:39PM 61.0155 -40.4384 274° West  Level FlightAware Approximate
04:40PM 61.0239 -40.6932 274° West  Level FlightAware Approximate
04:41PM 61.0318 -40.9482 274° West  Level FlightAware Approximate
04:42PM 61.0392 -41.2032 274° West  Level FlightAware Approximate
04:43PM 61.0461 -41.4584 273° West  Level FlightAware Approximate
04:44PM 61.0526 -41.7137 273° West  Level FlightAware Approximate
04:45PM 61.0586 -41.9691 273° West  Level FlightAware Approximate
04:46PM 61.0640 -42.2245 273° West  Level FlightAware Approximate
04:47PM 61.0690 -42.4801 272° West  Level FlightAware Approximate
04:48PM 61.0736 -42.7357 272° West  Level FlightAware Approximate
04:49PM 61.0776 -42.9914 272° West  Level FlightAware Approximate
04:50PM 61.0812 -43.2472 272° West  Level FlightAware Approximate
04:51PM 61.0842 -43.5030 272° West  Level FlightAware Approximate
04:52PM 61.0868 -43.7589 271° West  Level FlightAware Approximate
04:53PM 61.0889 -44.0148 271° West  Level FlightAware Approximate
04:54PM 61.0905 -44.2707 271° West  Level FlightAware Approximate
04:55PM 61.0917 -44.5266 271° West  Level FlightAware Approximate
04:56PM 61.0923 -44.7826 270° West  Level FlightAware Approximate
04:57PM 61.0925 -45.0386 270° West  Level FlightAware Approximate
04:58PM 61.0922 -45.2945 270° West  Level FlightAware Approximate
04:59PM 61.0914 -45.5505 270° West  Level FlightAware Approximate
05:00PM 61.0901 -45.8064 270° West  Level FlightAware Approximate
05:01PM 61.0883 -46.0624 269° West  Level FlightAware Approximate
05:02PM 61.0861 -46.3183 269° West  Level FlightAware Approximate
05:03PM 61.0834 -46.5741 269° West  Level FlightAware Approximate
05:04PM 61.0802 -46.8299 269° West  Level FlightAware Approximate
05:05PM 61.0765 -47.0857 268° West  Level FlightAware Approximate
05:06PM 61.0723 -47.3413 268° West  Level FlightAware Approximate
05:07PM 61.0676 -47.5969 268° West  Level FlightAware Approximate
05:08PM 61.0625 -47.8525 268° West  Level FlightAware Approximate
05:09PM 61.0568 -48.1079 268° West  Level FlightAware Approximate
05:10PM 61.0507 -48.3633 267° West  Level FlightAware Approximate
05:11PM 61.0441 -48.6185 267° West  Level FlightAware Approximate
05:12PM 61.0370 -48.8736 267° West  Level FlightAware Approximate
05:13PM 61.0295 -49.1287 267° West  Level FlightAware Approximate
05:14PM 61.0214 -49.3836 266° West  Level FlightAware Approximate
05:15PM 61.0129 -49.6383 266° West  Level FlightAware Approximate
05:16PM 61.0039 -49.8929 266° West  Level FlightAware Approximate
05:17PM 60.9910 -50.1467 263° West  Level FlightAware Approximate
05:18PM 60.9752 -50.3997 263° West  Level FlightAware Approximate
05:19PM 60.9588 -50.6524 263° West  Level FlightAware Approximate
05:20PM 60.9420 -50.9049 262° West  Level FlightAware Approximate
05:21PM 60.9248 -51.1571 262° West  Level FlightAware Approximate
05:22PM 60.9070 -51.4090 262° West  Level FlightAware Approximate
05:23PM 60.8888 -51.6606 262° West  Level FlightAware Approximate
05:24PM 60.8701 -51.9120 261° West  Level FlightAware Approximate
05:25PM 60.8509 -52.1630 261° West  Level FlightAware Approximate
05:26PM 60.8313 -52.4138 261° West  Level FlightAware Approximate
05:27PM 60.8112 -52.6642 261° West  Level FlightAware Approximate
05:28PM 60.7907 -52.9143 261° West  Level FlightAware Approximate
05:29PM 60.7697 -53.1641 260° West  Level FlightAware Approximate
05:30PM 60.7482 -53.4136 260° West  Level FlightAware Approximate
05:31PM 60.7262 -53.6627 260° West  Level FlightAware Approximate
05:32PM 60.7038 -53.9115 260° West  Level FlightAware Approximate
05:33PM 60.6810 -54.1599 259° West  Level FlightAware Approximate
05:34PM 60.6577 -54.4080 259° West  Level FlightAware Approximate
05:35PM 60.6339 -54.6557 259° West  Level FlightAware Approximate
05:36PM 60.6096 -54.9030 259° West  Level FlightAware Approximate
05:37PM 60.5849 -55.1500 258° West  Level FlightAware Approximate
05:38PM 60.5597 -55.3965 258° West  Level FlightAware Approximate
05:39PM 60.5340 -55.6427 258° West  Level FlightAware Approximate
05:40PM 60.5064 -55.8805 258° West  Level FlightAware Approximate
05:41PM 60.4810 -56.1191 258° West  Level FlightAware Approximate
05:41PM 60.5333 -55.7333 257° West 230 265 31,000  Level Gander Center
05:42PM 60.4551 -56.3572 258° West  Level FlightAware Approximate
05:42PM 60.5333 -55.9667 270° West 430 495 31,000  Level Gander Center
05:43PM 60.4288 -56.5950 257° West  Level FlightAware Approximate
05:43PM 60.5000 -56.2500 257° West 450 518 31,000  Level Gander Center
05:44PM 60.4021 -56.8324 257° West  Level FlightAware Approximate
05:44PM 60.4667 -56.4833 254° West 460 529 31,000  Level Gander Center
05:45PM 60.3749 -57.0694 257° West  Level FlightAware Approximate
05:45PM 60.4500 -56.7333 262° West 450 518 31,000  Level Gander Center
05:46PM 60.3473 -57.3060 257° West  Level FlightAware Approximate
05:46PM 60.4167 -56.9667 254° West 450 518 31,000  Level Gander Center
05:47PM 60.3833 -57.2500 257° West 450 518 31,000  Level Gander Center
05:48PM 60.3667 -57.4833 262° West 450 518 31,000  Level Gander Center
05:49PM 60.3167 -57.7167 247° West 450 518 31,000 50 Level Gander Center
05:50PM 60.2833 -57.9667 255° West 450 518 31,100 700 Climbing Gander Center
05:51PM 60.2333 -58.2000 247° West 450 518 32,400 1,300 Climbing Gander Center
05:52PM 60.1833 -58.4333 247° West 450 518 33,700 1,426 Climbing Gander Center
05:52PM 60.1333 -58.5500 229° Southwest 430 495 34,800 1,188 Climbing Montreal Center
05:53PM 60.1000 -58.7833 254° West 440 506 35,700 600 Climbing Montreal Center
05:54PM 60.0500 -59.0167 247° West 440 506 36,000 150 Climbing Montreal Center
05:55PM 60.0167 -59.2000 250° West 440 506 36,000  Level Montreal Center
05:56PM 59.9667 -59.4333 247° West 440 506 36,000  Level Montreal Center
05:57PM 59.9333 -59.6167 250° West 430 495 36,000  Level Montreal Center
05:58PM 59.8833 -59.8500 247° West 430 495 36,000  Level Montreal Center
05:59PM 59.8333 -60.0833 247° West 430 495 36,000  Level Montreal Center
06:00PM 59.7667 -60.3500 244° Southwest 440 506 36,000  Level Montreal Center
06:01PM 59.7500 -60.5333 260° West 440 506 36,000  Level Montreal Center
06:02PM 59.6833 -60.7667 241° Southwest 430 495 36,000  Level Montreal Center
06:03PM 59.6333 -60.9833 246° West 430 495 36,000  Level Montreal Center
06:04PM 59.5833 -61.2167 247° West 430 495 36,000  Level Montreal Center
06:05PM 59.5333 -61.4333 246° West 430 495 36,000  Level Montreal Center
06:06PM 59.4833 -61.6167 242° Southwest 430 495 36,000  Level Montreal Center
06:07PM 59.4500 -61.8833 256° West 430 495 36,000  Level Montreal Center
06:08PM 59.3833 -62.0667 235° Southwest 430 495 36,000  Level Montreal Center
06:09PM 59.3333 -62.2833 246° West 430 495 36,000  Level Montreal Center
06:10PM 59.2833 -62.5000 246° West 430 495 36,000  Level Montreal Center
06:11PM 59.2167 -62.7000 237° Southwest 430 495 36,000  Level Montreal Center
06:12PM 59.1833 -62.9167 253° West 430 495 36,000  Level Montreal Center
06:13PM 59.1333 -63.1000 242° Southwest 430 495 36,000  Level Montreal Center
06:14PM 59.0833 -63.3167 246° West 420 483 36,000  Level Montreal Center
06:15PM 59.0333 -63.5333 246° West 420 483 36,000  Level Montreal Center
06:16PM 58.9833 -63.7500 246° West 420 483 36,000  Level Montreal Center
06:17PM 58.9333 -63.9333 242° Southwest 430 495 36,000  Level Montreal Center
06:18PM 58.8667 -64.1500 239° Southwest 430 495 36,000  Level Montreal Center
06:19PM 58.8167 -64.3333 242° Southwest 430 495 36,000  Level Montreal Center
06:20PM 58.7667 -64.5500 246° West 430 495 36,000  Level Montreal Center
06:21PM 58.7000 -64.7667 239° Southwest 430 495 36,000  Level Montreal Center
06:22PM 58.6500 -64.9667 244° Southwest 420 483 36,000  Level Montreal Center
06:23PM 58.6000 -65.1500 242° Southwest 420 483 36,000  Level Montreal Center
06:24PM 58.5500 -65.3667 246° West 420 483 36,000  Level Montreal Center
06:25PM 58.5000 -65.5500 242° Southwest 420 483 36,000  Level Montreal Center
06:26PM 58.4500 -65.7500 245° Southwest 420 483 36,000  Level Montreal Center
06:27PM 58.3833 -65.9667 240° Southwest 420 483 36,000  Level Montreal Center
06:28PM 58.3167 -66.1333 233° Southwest 410 472 36,000  Level Montreal Center
06:29PM 58.2667 -66.3500 246° West 420 483 36,000  Level Montreal Center
06:30PM 58.2167 -66.5167 240° Southwest 420 483 36,000  Level Montreal Center
06:31PM 58.1667 -66.7333 246° West 420 483 36,000  Level Montreal Center
06:32PM 58.1000 -66.9000 233° Southwest 420 483 36,000  Level Montreal Center
06:33PM 58.0333 -67.0833 236° Southwest 420 483 36,000  Level Montreal Center
06:34PM 57.9667 -67.2667 236° Southwest 420 483 36,000  Level Montreal Center
06:35PM 57.8667 -67.4333 222° Southwest 420 483 36,000  Level Montreal Center
06:36PM 57.8000 -67.6167 236° Southwest 420 483 36,000  Level Montreal Center
06:37PM 57.7167 -67.7667 224° Southwest 420 483 36,000  Level Montreal Center
06:38PM 57.6500 -67.9333 233° Southwest 420 483 36,000  Level Montreal Center
06:39PM 57.5667 -68.0833 224° Southwest 410 472 36,000  Level Montreal Center
06:40PM 57.4833 -68.2500 227° Southwest 410 472 36,000  Level Montreal Center
06:41PM 57.4167 -68.4167 233° Southwest 410 472 36,000  Level Montreal Center
06:42PM 57.3333 -68.5667 224° Southwest 410 472 36,000  Level Montreal Center
06:43PM 57.2500 -68.7333 227° Southwest 410 472 36,000  Level Montreal Center
06:44PM 57.1833 -68.8833 231° Southwest 410 472 36,000  Level Montreal Center
06:45PM 57.1000 -69.0500 227° Southwest 410 472 36,000  Level Montreal Center
06:46PM 57.0333 -69.2167 234° Southwest 410 472 36,000  Level Montreal Center
06:47PM 56.9500 -69.3500 221° Southwest 410 472 36,000  Level Montreal Center
06:48PM 56.8833 -69.5167 234° Southwest 410 472 36,000  Level Montreal Center
06:49PM 56.8000 -69.6500 221° Southwest 400 460 36,000  Level Montreal Center
06:50PM 56.7167 -69.8167 228° Southwest 400 460 36,000  Level Montreal Center
06:51PM 56.6500 -69.9500 228° Southwest 400 460 36,000  Level Montreal Center
06:52PM 56.5667 -70.1167 228° Southwest 400 460 36,000  Level Montreal Center
06:53PM 56.5000 -70.2500 228° Southwest 400 460 36,000  Level Montreal Center
06:54PM 56.4167 -70.4167 228° Southwest 400 460 36,000  Level Montreal Center
06:55PM 56.3333 -70.5500 222° Southwest 400 460 36,000  Level Montreal Center
06:56PM 56.2833 -70.7167 242° Southwest 400 460 36,000  Level Montreal Center
06:57PM 56.2000 -70.8500 222° Southwest 400 460 36,000  Level Montreal Center
06:58PM 56.1167 -70.9833 222° Southwest 400 460 36,000  Level Montreal Center
06:59PM 56.0167 -71.1333 220° Southwest 400 460 36,000  Level Montreal Center
07:00PM 55.9500 -71.3000 235° Southwest 400 460 36,000  Level Montreal Center
07:01PM 55.8833 -71.4333 228° Southwest 400 460 36,000  Level Montreal Center
07:02PM 55.8000 -71.5500 218° Southwest 400 460 36,000  Level Montreal Center
07:03PM 55.7167 -71.7167 228° Southwest 400 460 36,000  Level Montreal Center
07:04PM 55.6500 -71.8500 228° Southwest 390 449 36,000  Level Montreal Center
07:05PM 55.5667 -71.9667 218° Southwest 390 449 36,000  Level Montreal Center
07:06PM 55.5000 -72.1333 235° Southwest 380 437 36,000  Level Montreal Center
07:07PM 55.4167 -72.2500 218° Southwest 390 449 36,000  Level Montreal Center
07:08PM 55.3333 -72.3833 222° Southwest 390 449 36,000  Level Montreal Center
07:09PM 55.2667 -72.5333 232° Southwest 400 460 36,000  Level Montreal Center
07:10PM 55.1833 -72.6667 222° Southwest 400 460 36,000  Level Montreal Center
07:11PM 55.1000 -72.8167 226° Southwest 390 449 36,000  Level Montreal Center
07:12PM 55.0167 -72.9333 219° Southwest 390 449 36,000  Level Montreal Center
07:13PM 54.9333 -73.0833 226° Southwest 400 460 36,000  Level Montreal Center
07:14PM 54.8500 -73.2167 223° Southwest 390 449 36,000  Level Montreal Center
07:15PM 54.8000 -73.3667 240° Southwest 390 449 36,000  Level Montreal Center
07:16PM 54.7167 -73.4833 219° Southwest 390 449 36,000  Level Montreal Center
07:17PM 54.6333 -73.6000 219° Southwest 390 449 36,000  Level Montreal Center
07:18PM 54.5500 -73.7500 226° Southwest 390 449 36,000  Level Montreal Center
07:19PM 54.4667 -73.8833 223° Southwest 390 449 36,000  Level Montreal Center
07:20PM 54.4000 -74.0000 226° Southwest 390 449 36,000  Level Montreal Center
07:21PM 54.3167 -74.1500 226° Southwest 390 449 36,000  Level Montreal Center
07:22PM 54.2333 -74.2667 219° Southwest 390 449 36,000  Level Montreal Center
07:23PM 54.1500 -74.3833 219° Southwest 390 449 36,000  Level Montreal Center
07:24PM 54.0667 -74.5333 227° Southwest 390 449 36,000  Level Montreal Center
07:25PM 53.9833 -74.6500 219° Southwest 390 449 36,000  Level Montreal Center
07:26PM 53.9000 -74.7833 223° Southwest 390 449 36,000 400 Level Montreal Center
07:27PM 53.8333 -74.9000 226° Southwest 390 449 36,800 800 Climbing Montreal Center
07:28PM 53.7500 -75.0167 220° Southwest 390 449 37,600 600 Climbing Montreal Center
07:29PM 53.6667 -75.1667 227° Southwest 380 437 38,000 200 Climbing Montreal Center
07:30PM 53.6000 -75.2833 226° Southwest 380 437 38,000  Level Montreal Center
07:31PM 53.5167 -75.4000 220° Southwest 380 437 38,000  Level Montreal Center
07:32PM 53.4333 -75.5167 220° Southwest 380 437 38,000  Level Montreal Center
07:33PM 53.3500 -75.6333 220° Southwest 380 437 38,000  Level Montreal Center
07:34PM 53.2833 -75.7667 230° Southwest 390 449 38,000  Level Montreal Center
07:35PM 53.2000 -75.8833 220° Southwest 380 437 38,000  Level Montreal Center
07:36PM 53.1167 -76.0000 220° Southwest 380 437 38,000  Level Montreal Center
07:37PM 53.0500 -76.1333 230° Southwest 390 449 38,000  Level Montreal Center
07:38PM 52.9833 -76.2667 230° Southwest 390 449 38,000  Level Montreal Center
07:39PM 52.9167 -76.4167 234° Southwest 390 449 38,000  Level Montreal Center
07:40PM 52.8333 -76.5500 224° Southwest 390 449 38,000  Level Montreal Center
07:41PM 52.7667 -76.6667 227° Southwest 390 449 38,000  Level Montreal Center
07:42PM 52.6833 -76.8167 228° Southwest 390 449 38,000  Level Montreal Center
07:43PM 52.6167 -76.9333 227° Southwest 390 449 38,000  Level Montreal Center
07:44PM 52.5500 -77.0667 231° Southwest 390 449 38,000  Level Montreal Center
07:45PM 52.4667 -77.2000 224° Southwest 390 449 38,000  Level Montreal Center
07:46PM 52.3833 -77.3500 228° Southwest 390 449 38,000  Level Montreal Center
07:47PM 52.3000 -77.4833 224° Southwest 390 449 38,000  Level Montreal Center
07:48PM 52.2333 -77.6167 231° Southwest 400 460 38,000  Level Montreal Center
07:49PM 52.1667 -77.7500 231° Southwest 390 449 38,000  Level Montreal Center
07:50PM 52.0833 -77.8500 216° Southwest 390 449 38,000  Level Montreal Center
07:51PM 52.0167 -77.9833 231° Southwest 390 449 38,000  Level Montreal Center
07:52PM 51.9167 -78.1167 219° Southwest 400 460 38,000  Level Montreal Center
07:53PM 51.8500 -78.2500 231° Southwest 400 460 38,000  Level Montreal Center
07:54PM 51.7667 -78.3833 225° Southwest 390 449 38,000  Level Montreal Center
07:55PM 51.7000 -78.5167 231° Southwest 400 460 38,000  Level Montreal Center
07:56PM 51.6333 -78.6500 231° Southwest 400 460 38,000  Level Montreal Center
07:57PM 51.5333 -78.7833 220° Southwest 400 460 38,000  Level Montreal Center
07:58PM 51.4667 -78.9167 231° Southwest 410 472 38,000  Level Montreal Center
07:59PM 51.3833 -79.0333 221° Southwest 400 460 38,000  Level Montreal Center
08:00PM 51.3000 -79.1667 225° Southwest 410 472 38,000  Level Montreal Center
08:01PM 51.2167 -79.3000 225° Southwest 410 472 38,000  Level Montreal Center
08:02PM 51.1333 -79.4333 225° Southwest 400 460 38,000  Level Montreal Center
08:03PM 51.0667 -79.5500 228° Southwest 400 460 38,000  Level Montreal Center
08:04PM 50.9667 -79.7000 223° Southwest 410 472 38,000  Level Montreal Center
08:05PM 50.8833 -79.8000 217° Southwest 410 472 38,000  Level Montreal Center
08:06PM 50.8167 -79.9333 232° Southwest 410 472 38,000  Level Montreal Center
08:07PM 50.7333 -80.0833 229° Southwest 410 472 38,000  Level Montreal Center
08:08PM 50.6500 -80.2167 225° Southwest 410 472 38,000  Level Montreal Center
08:09PM 50.5667 -80.3333 222° Southwest 410 472 38,000  Level Montreal Center
08:10PM 50.4833 -80.4667 226° Southwest 410 472 38,000  Level Montreal Center
08:11PM 50.4000 -80.5833 222° Southwest 420 483 38,000  Level Montreal Center
08:12PM 50.3167 -80.7167 226° Southwest 420 483 38,000  Level Montreal Center
08:13PM 50.2167 -80.8667 224° Southwest 420 483 38,000  Level Montreal Center
08:14PM 50.1500 -80.9833 228° Southwest 420 483 38,000  Level Montreal Center
08:15PM 50.0667 -81.1000 222° Southwest 420 483 38,000  Level Montreal Center
08:16PM 49.9667 -81.2333 221° Southwest 420 483 38,000  Level Montreal Center
08:17PM 49.9000 -81.3500 228° Southwest 420 483 38,000  Level Montreal Center
08:18PM 49.8000 -81.5000 224° Southwest 420 483 38,000  Level Montreal Center
08:19PM 49.7167 -81.6167 222° Southwest 420 483 38,000  Level Montreal Center
08:20PM 49.6500 -81.7333 229° Southwest 420 483 38,000  Level Montreal Center
08:21PM 49.5500 -81.8500 217° Southwest 420 483 38,000  Level Montreal Center
08:22PM 49.4667 -81.9667 222° Southwest 430 495 38,000  Level Montreal Center
08:23PM 49.3667 -82.1167 224° Southwest 430 495 38,000  Level Montreal Center
08:24PM 49.2833 -82.2333 222° Southwest 430 495 38,000  Level Montreal Center
08:25PM 49.1833 -82.3833 224° Southwest 430 495 38,000  Level Montreal Center
08:26PM 49.1167 -82.5000 229° Southwest 430 495 38,000  Level Montreal Center
08:27PM 49.0167 -82.6167 217° Southwest 430 495 38,000  Level Montreal Center
08:28PM 48.9333 -82.7333 223° Southwest 430 495 38,000  Level Montreal Center
08:29PM 48.8500 -82.8667 227° Southwest 430 495 38,000  Level Montreal Center
08:30PM 48.7667 -82.9833 223° Southwest 430 495 38,000  Level Montreal Center
08:31PM 48.6667 -83.1000 218° Southwest 430 495 38,000  Level Montreal Center
08:33PM 48.5167 -83.2833 219° Southwest 440 506 38,000  Level Toronto Center
08:34PM 48.4167 -83.4167 222° Southwest 440 506 38,000  Level Toronto Center
08:35PM 48.3333 -83.5333 223° Southwest 440 506 38,000  Level Toronto Center
08:36PM 48.2500 -83.6667 227° Southwest 440 506 38,000  Level Toronto Center
08:37PM 48.1667 -83.7833 223° Southwest 440 506 38,000  Level Toronto Center
08:38PM 48.0500 -83.9000 214° Southwest 440 506 38,000  Level Toronto Center
08:39PM 47.9667 -84.0167 223° Southwest 440 506 38,000  Level Toronto Center
08:40PM 47.8833 -84.1500 227° Southwest 440 506 38,000  Level Toronto Center
08:41PM 47.7833 -84.2667 218° Southwest 430 495 38,000  Level Toronto Center
08:42PM 47.6833 -84.3833 218° Southwest 440 506 38,000  Level Toronto Center
08:43PM 47.6000 -84.5000 223° Southwest 440 506 38,000  Level Toronto Center
08:44PM 47.5167 -84.6167 223° Southwest 440 506 38,000  Level Toronto Center
08:45PM 47.4167 -84.7333 218° Southwest 450 518 38,000  Level Toronto Center
08:46PM 47.3333 -84.8500 224° Southwest 450 518 38,000  Level Toronto Center
08:47PM 47.2333 -84.9833 222° Southwest 450 518 38,000  Level Toronto Center
08:48PM 47.1333 -85.1000 218° Southwest 450 518 38,000  Level Toronto Center
08:49PM 47.0500 -85.2333 227° Southwest 450 518 38,000  Level Toronto Center
08:50PM 46.9500 -85.3500 219° Southwest 450 518 38,000  Level Toronto Center
08:52PM 46.8069 -85.5333 221° Southwest 450 518 38,000  Level Minneapolis Center
08:53PM 46.7122 -85.6544 221° Southwest 454 522 38,000  Level Minneapolis Center
08:54PM 46.6156 -85.7719 220° Southwest 454 522 38,000  Level Minneapolis Center
08:55PM 46.5022 -85.9114 220° Southwest 450 518 38,000  Level Minneapolis Center
08:56PM 46.4069 -86.0300 221° Southwest 452 520 38,000  Level Minneapolis Center
08:57PM 46.3125 -86.1433 220° Southwest 446 513 38,000  Level Minneapolis Center
08:58PM 46.2181 -86.2603 221° Southwest 448 516 38,000  Level Minneapolis Center
08:59PM 46.1222 -86.3747 220° Southwest 450 518 38,000  Level Minneapolis Center
09:00PM 46.0267 -86.4894 220° Southwest 449 517 38,000 -48 Level Minneapolis Center
09:01PM 45.9108 -86.6289 220° Southwest 454 522 37,900  Descending Minneapolis Center
09:02PM 45.8147 -86.7425 220° Southwest 451 519 38,000 48 Climbing Minneapolis Center
09:03PM 45.7178 -86.8561 219° Southwest 452 520 38,000  Level Minneapolis Center
09:04PM 45.6214 -86.9714 220° Southwest 455 524 38,000  Level Minneapolis Center
09:05PM 45.5236 -87.0853 219° Southwest 456 525 38,000  Level Minneapolis Center
09:12PM 44.8806 -87.8278 219° Southwest 462 532 38,000  Level FlightAware ADS-B
09:12PM 44.8146 -87.9014 218° Southwest 464 534 38,000  Level FlightAware ADS-B
09:13PM 44.7464 -87.9792 219° Southwest 465 535 38,000  Level FlightAware ADS-B
09:14PM 44.6823 -88.0512 219° Southwest 467 537 38,000  Level FlightAware ADS-B
09:15PM 44.5852 -88.1612 219° Southwest 469 540 38,000  Level FlightAware ADS-B
09:20PM 44.0736 -88.7776 221° Southwest 465 535 38,000  Level FlightAware ADS-B (KMSN)
09:20PM 44.0333 -88.8267 221° Southwest 469 540 38,000  Level FlightAware ADS-B
09:21PM 43.9623 -88.9111 221° Southwest 469 540 38,000  Level FlightAware ADS-B
09:23PM 43.7883 -89.1167 220° Southwest 468 539 38,000  Level FlightAware ADS-B
09:23PM 43.7240 -89.1941 221° Southwest 468 539 38,000  Level FlightAware ADS-B
09:24PM 43.6591 -89.2699 220° Southwest 468 539 38,000  Level FlightAware ADS-B
09:25PM 43.5420 -89.4075 220° Southwest 470 541 38,000  Level FlightAware ADS-B (KMSN)
09:26PM 43.4908 -89.4677 220° Southwest 472 543 38,000  Level FlightAware ADS-B
09:26PM 43.4247 -89.5434 220° Southwest 470 541 38,000  Level FlightAware ADS-B
09:28PM 43.2965 -89.6933 220° Southwest 468 539 38,000  Level FlightAware ADS-B
09:28PM 43.2421 -89.7563 220° Southwest 469 540 38,000  Level FlightAware ADS-B (KMSN)
09:29PM 43.1812 -89.8252 220° Southwest 470 541 38,000  Level FlightAware ADS-B
09:29PM 43.1209 -89.8959 221° Southwest 469 540 38,000  Level FlightAware ADS-B
09:30PM 43.0633 -89.9608 219° Southwest 469 540 38,000  Level FlightAware ADS-B (KMSN)
09:30PM 43.0090 -90.0236 220° Southwest 469 540 38,000  Level FlightAware ADS-B
09:31PM 42.9443 -90.0974 220° Southwest 469 540 38,000  Level FlightAware ADS-B (KMSN)
09:32PM 42.8767 -90.1748 220° Southwest 467 537 38,000  Level FlightAware ADS-B
09:32PM 42.8101 -90.2499 220° Southwest 465 535 38,000  Level FlightAware ADS-B
09:33PM 42.7593 -90.3079 220° Southwest 464 534 38,000  Level FlightAware ADS-B (LPVM)
09:34PM 42.6970 -90.3764 219° Southwest 462 532 38,000  Level FlightAware ADS-B (LPVM)
09:34PM 42.6223 -90.4614 220° Southwest 461 531 38,000  Level FlightAware ADS-B
09:35PM 42.5629 -90.5277 219° Southwest 460 529 38,000  Level FlightAware ADS-B (LPVM)
09:36PM 42.4477 -90.6566 220° Southwest 464 534 38,000  Level FlightAware ADS-B
09:37PM 42.4073 -90.7043 221° Southwest 462 532 38,000  Level FlightAware ADS-B (LPVM)
09:37PM 42.3544 -90.7758 225° Southwest 462 532 38,000  Level FlightAware ADS-B
09:38PM 42.2443 -90.9248 225° Southwest 463 533 38,000  Level FlightAware ADS-B
09:39PM 42.1831 -91.0093 226° Southwest 463 533 38,000  Level FlightAware ADS-B
09:40PM 42.1248 -91.0896 226° Southwest 465 535 38,000  Level FlightAware ADS-B
09:41PM 42.0118 -91.2433 225° Southwest 468 539 38,000  Level FlightAware ADS-B (LPVM)
09:42PM 41.9539 -91.3220 225° Southwest 469 540 38,000  Level FlightAware ADS-B (LPVM)
09:42PM 41.8936 -91.4047 226° Southwest 468 539 38,000  Level FlightAware ADS-B (LPVM)
09:43PM 41.8192 -91.5055 225° Southwest 467 537 38,000  Level FlightAware ADS-B
09:44PM 41.7629 -91.5817 225° Southwest 467 537 38,000  Level FlightAware ADS-B (LPVM)
09:44PM 41.7085 -91.6534 225° Southwest 467 537 38,000  Level FlightAware ADS-B (LPVM)
09:45PM 41.6463 -91.7371 225° Southwest 465 535 38,000  Level FlightAware ADS-B (LPVM)
09:46PM 41.5888 -91.8142 225° Southwest 463 533 38,000  Level FlightAware ADS-B (LPVM)
09:46PM 41.5339 -91.8867 225° Southwest 462 532 38,000  Level FlightAware ADS-B (LPVM)
09:47PM 41.4685 -91.9749 225° Southwest 460 529 38,000  Level FlightAware ADS-B (LPVM)
09:48PM 41.4080 -92.0547 225° Southwest 458 527 38,000  Level FlightAware ADS-B (LPVM)
09:49PM 41.3067 -92.1888 225° Southwest 455 524 38,000  Level FlightAware ADS-B
09:51PM 41.1299 -92.4213 225° Southwest 457 526 38,000  Level FlightAware ADS-B
09:51PM 41.0714 -92.4960 224° Southwest 457 526 38,000  Level FlightAware ADS-B (LPVM)
09:52PM 41.0227 -92.5607 225° Southwest 457 526 38,000  Level FlightAware ADS-B (LPVM)
09:56PM 40.6920 -92.9871 224° Southwest 450 518 38,000  Level FlightAware ADS-B
09:56PM 40.6462 -93.0461 224° Southwest 448 516 38,000  Level FlightAware ADS-B
09:57PM 40.6000 -93.1048 224° Southwest 446 513 38,000  Level FlightAware ADS-B
09:57PM 40.5547 -93.1634 225° Southwest 444 511 38,000  Level FlightAware ADS-B
09:58PM 40.5099 -93.2196 224° Southwest 444 511 38,000  Level FlightAware ADS-B
09:58PM 40.4650 -93.2760 224° Southwest 446 513 38,000  Level FlightAware ADS-B
09:59PM 40.4199 -93.3342 225° Southwest 447 514 38,000  Level FlightAware ADS-B
09:59PM 40.3743 -93.3907 223° Southwest 449 517 38,000  Level FlightAware ADS-B
10:00PM 40.3291 -93.4476 224° Southwest 451 519 38,000  Level FlightAware ADS-B
10:00PM 40.2806 -93.5103 225° Southwest 448 516 38,000  Level FlightAware ADS-B
10:01PM 40.1907 -93.6224 224° Southwest 446 513 38,000  Level FlightAware ADS-B
10:02PM 40.1455 -93.6782 223° Southwest 446 513 38,000  Level FlightAware ADS-B
10:03PM 39.9972 -93.8671 224° Southwest 441 507 38,000  Level FlightAware ADS-B
10:04PM 39.9553 -93.9287 228° Southwest 436 502 38,000  Level FlightAware ADS-B
10:04PM 39.9166 -93.9919 231° Southwest 435 501 38,000  Level FlightAware ADS-B
10:05PM 39.8789 -94.0531 231° Southwest 433 498 38,000  Level FlightAware ADS-B
10:05PM 39.8409 -94.1140 231° Southwest 431 496 38,000  Level FlightAware ADS-B
10:06PM 39.8035 -94.1747 231° Southwest 430 495 38,000  Level FlightAware ADS-B
10:06PM 39.7661 -94.2375 232° Southwest 431 496 38,000  Level FlightAware ADS-B
10:07PM 39.7288 -94.2986 232° Southwest 431 496 38,000  Level FlightAware ADS-B
10:07PM 39.6910 -94.3593 231° Southwest 432 497 38,000  Level FlightAware ADS-B
10:08PM 39.6517 -94.4243 232° Southwest 432 497 38,000  Level FlightAware ADS-B
10:08PM 39.6090 -94.4932 231° Southwest 432 497 38,000  Level FlightAware ADS-B
10:09PM 39.5706 -94.5558 232° Southwest 432 497 38,000  Level FlightAware ADS-B
10:09PM 39.5331 -94.6163 231° Southwest 430 495 38,000  Level FlightAware ADS-B
10:10PM 39.4949 -94.6785 231° Southwest 429 494 38,000  Level FlightAware ADS-B
10:10PM 39.4574 -94.7384 231° Southwest 427 491 38,000  Level FlightAware ADS-B
10:11PM 39.4200 -94.7979 231° Southwest 425 489 38,000  Level FlightAware ADS-B
10:12PM 39.3829 -94.8572 231° Southwest 425 489 38,000  Level FlightAware ADS-B
10:12PM 39.3455 -94.9187 232° Southwest 425 489 38,000  Level FlightAware ADS-B
10:13PM 39.3080 -94.9780 231° Southwest 427 491 38,000  Level FlightAware ADS-B
10:13PM 39.2702 -95.0374 231° Southwest 427 491 38,000  Level FlightAware ADS-B
10:14PM 39.2330 -95.0968 231° Southwest 426 490 38,000 -100 Level FlightAware ADS-B
10:14PM 39.1949 -95.1575 231° Southwest 423 487 37,900 -984 Descending FlightAware ADS-B
10:16PM 39.0833 -95.3362 231° Southwest 422 486 36,000 -1,266 Descending FlightAware ADS-B
10:16PM 39.0377 -95.4066 230° Southwest 424 488 35,200 -1,059 Descending FlightAware ADS-B
10:17PM 38.9779 -95.5012 231° Southwest 417 480 34,500 -900 Descending FlightAware ADS-B
10:17PM 38.9403 -95.5604 231° Southwest 413 475 34,000 -435 Descending FlightAware ADS-B
10:18PM 38.8943 -95.6320 230° Southwest 409 471 34,000 -249 Level FlightAware ADS-B
10:20PM 38.7363 -95.8775 231° Southwest 403 464 33,300 -671 Descending FlightAware ADS-B
10:21PM 38.7011 -95.9323 231° Southwest 395 455 32,200 -2,361 Descending FlightAware ADS-B
10:21PM 38.6661 -95.9876 231° Southwest 389 448 30,900 -2,066 Descending FlightAware ADS-B
10:22PM 38.6313 -96.0408 230° Southwest 391 450 30,100 -1,524 Descending FlightAware ADS-B
10:22PM 38.6042 -96.0856 230° Southwest 391 450 29,300 -2,298 Descending Kansas City Center
10:23PM 38.5319 -96.1950 230° Southwest 374 430 26,500 -2,508 Descending Kansas City Center
10:24PM 38.4708 -96.2903 231° Southwest 364 419 24,200 -1,426 Descending Kansas City Center
10:25PM 38.4086 -96.3858 230° Southwest 364 419 23,600 -1,475 Descending Kansas City Center
10:26PM 38.3447 -96.4831 230° Southwest 360 414 21,200 -2,860 Descending Kansas City Center
10:27PM 38.2892 -96.5639 229° Southwest 354 407 18,500 -3,148 Descending Kansas City Center
10:27PM 38.2819 -96.5778 236° Southwest 352 405 18,000 -3,000 Descending Kansas City Center
10:28PM 38.2544 -96.6150 227° Southwest 350 403 17,000 -3,148 Descending Kansas City Center
10:28PM 38.2092 -96.6878 232° Southwest 339 390 14,800 -2,656 Descending Kansas City Center
10:29PM 38.1964 -96.7044 226° Southwest 333 383 14,300 -3,194 Descending Kansas City Center
10:30PM 38.1528 -96.7736 231° Southwest 321 369 11,500 -3,200 Descending Kansas City Center
10:30PM 38.1403 -96.7911 228° Southwest 314 361 11,100 -1,672 Descending Kansas City Center
10:31PM 38.0900 -96.8478 222° Southwest 307 353 9,800 -1,574 Descending Kansas City Center
10:31PM 38.0756 -96.8575 208° Southwest 299 344 9,500 -1,808 Descending Kansas City Center
10:32PM 38.0183 -96.9361 227° Southwest 277 319 7,600 -1,486 Descending Kansas City Center
10:33PM 37.9819 -96.9881 228° Southwest 273 314 6,800 -1,180 Descending Kansas City Center
10:33PM 37.9686 -97.0053 226° Southwest 261 300 6,400 -984 Descending Kansas City Center
10:34PM 37.9381 -97.0567 233° Southwest 254 292 5,800 -885 Descending Kansas City Center
10:34PM 37.9269 -97.0728 229° Southwest 244 281 5,500 -1,082 Descending Kansas City Center
10:35PM 37.8994 -97.1206 234° Southwest 233 268 4,700 -1,100 Descending Kansas City Center
10:35PM 37.8889 -97.1347 227° Southwest 221 254 4,400 -1,180 Descending Kansas City Center
10:36PM 37.8631 -97.1794 234° Southwest 216 249 3,500 -1,082 Descending Kansas City Center
10:36PM 37.8525 -97.1908 220° Southwest 204 235 3,300 -492 Descending Kansas City Center
10:37PM 37.8194 -97.2139 209° Southwest 198 228 3,000 -295 Descending Kansas City Center
10:37PM 37.8069 -97.2192 198° South 174 200 3,000  Level Kansas City Center
10:38PM 37.7733 -97.2258 189° South 180 207 3,000 100 Level Kansas City Center
10:38PM 37.7619 -97.2317 202° Southwest 158 182 3,100  Climbing Kansas City Center
10:39PM 37.7308 -97.2375 188° South 167 192 3,000 -98 Descending Kansas City Center
10:39PM 37.7208 -97.2408 195° South 148 170 3,000 -393 Level Kansas City Center
10:40PM 37.6922 -97.2494 193° South 156 180 2,600 -700 Descending Kansas City Center
10:40PM 37.6800 -97.2525 191° South 138 159 2,300 -774 Descending Kansas City Center
10:41PM 37.6533 -97.2586 190° South 147 169 1,800 -474 Descending Kansas City Center
10:42PM 37.6072 -97.2717 193° South 146 168 1,400 -393 Descending Kansas City Center